Time;durP1;ratioP1;P1;durP2;ratioP2;P2;SDS_P1;SDS_P2;PMS_P1;PMS_P2;Temp;Humidity;BMP_temperature;BMP_pressure;BME280_temperature;BME280_humidity;BME280_pressure;Samples;Min_cycle;Max_cycle;Signal;HPM_P1;HPM_P2
2023/04/08 07:29:56;;;;;;;7.23;4.93;;;5.20;99.90;;;;;;5133195;27;20273;-78
2023/04/08 07:35:28;;;;;;;7.27;5.77;;;;;;;;;;5135979;27;20284;-78
2023/04/08 07:45:07;;;;;;;5.77;4.97;;;5.60;99.90;;;;;;5134003;27;20274;-77
2023/04/08 07:50:18;;;;;;;7.90;5.47;;;5.30;99.90;;;;;;5133899;27;20280;-79
2023/04/08 08:05:52;;;;;;;6.63;5.13;;;;;;;;;;5132970;27;20270;-77
2023/04/08 08:14:17;;;;;;;7.17;5.70;;;;;;;;;;5089773;27;20496;-77
2023/04/08 08:21:58;;;;;;;5.73;4.63;;;5.50;99.90;;;;;;5132532;27;20274;-77
2023/04/08 08:45:25;;;;;;;6.33;5.63;;;;;;;;;;5071723;28;20577;-77
2023/04/08 08:50:47;;;;;;;6.20;5.23;;;6.10;99.90;;;;;;5132057;27;20267;-77
2023/04/08 08:55:38;;;;;;;6.13;4.83;;;6.00;99.90;;;;;;5133060;27;20277;-78
2023/04/08 09:10:27;;;;;;;8.73;7.63;;;5.70;99.90;;;;;;5133260;27;20268;-78
2023/04/08 09:16:41;;;;;;;8.57;6.70;;;5.70;99.90;;;;;;5134111;27;20743;-78
2023/04/08 09:21:43;;;;;;;10.23;7.00;;;;;;;;;;5134888;27;20259;-79
2023/04/08 09:25:45;;;;;;;10.30;8.13;;;5.80;99.90;;;;;;5154631;27;20267;-78
2023/04/08 09:29:38;;;;;;;11.90;9.53;;;5.80;99.90;;;;;;5134430;27;20275;-78
2023/04/08 09:45:35;;;;;;;14.80;11.10;;;5.40;99.90;;;;;;5133819;27;20281;-78
2023/04/08 09:52:49;;;;;;;17.73;12.80;;;5.30;99.90;;;;;;5133609;27;20294;-78
2023/04/08 09:58:53;;;;;;;19.70;14.70;;;5.30;99.90;;;;;;5134081;27;20611;-78
2023/04/08 10:04:25;;;;;;;17.70;13.07;;;5.40;99.90;;;;;;5133894;27;20271;-78
2023/04/08 10:10:10;;;;;;;15.63;12.37;;;5.40;99.90;;;;;;5135755;27;20285;-79
2023/04/08 10:15:20;;;;;;;19.17;14.13;;;5.60;99.90;;;;;;5134548;27;20267;-78
2023/04/08 10:18:31;;;;;;;22.27;14.37;;;5.70;99.90;;;;;;5134809;27;20280;-78
2023/04/08 10:22:44;;;;;;;18.90;13.10;;;5.90;99.90;;;;;;5134360;27;20624;-79
2023/04/08 10:26:36;;;;;;;15.33;12.60;;;5.80;99.90;;;;;;5135128;27;20278;-79
2023/04/08 10:30:44;;;;;;;18.53;12.63;;;5.70;99.90;;;;;;5134468;27;20270;-79
2023/04/08 10:39:56;;;;;;;16.47;13.07;;;5.60;99.90;;;;;;5146982;27;20345;-79
2023/04/08 10:54:28;;;;;;;17.30;12.60;;;5.50;99.90;;;;;;5134322;27;20735;-79
2023/04/08 11:00:46;;;;;;;12.60;11.30;;;5.60;99.90;;;;;;5133975;27;20273;-79
2023/04/08 11:11:20;;;;;;;25.70;19.27;;;;;;;;;;5132133;27;20278;-78
2023/04/08 11:18:46;;;;;;;16.80;12.50;;;5.60;99.90;;;;;;5133102;27;20281;-78
2023/04/08 11:25:12;;;;;;;16.33;12.50;;;5.50;99.90;;;;;;5134398;27;20275;-78
2023/04/08 11:31:28;;;;;;;15.00;11.23;;;;;;;;;;5133814;27;20273;-78
2023/04/08 11:38:06;;;;;;;14.87;12.03;;;5.70;99.90;;;;;;5134208;27;20276;-78
2023/04/08 11:42:44;;;;;;;16.33;12.37;;;5.60;99.90;;;;;;5136352;27;20284;-77
2023/04/08 11:47:52;;;;;;;17.27;11.80;;;5.70;99.90;;;;;;5136446;27;20276;-79
2023/04/08 11:52:48;;;;;;;15.73;12.07;;;5.40;99.90;;;;;;5133722;27;20299;-78
2023/04/08 11:57:29;;;;;;;13.07;10.60;;;5.60;99.90;;;;;;5134612;27;20272;-78
2023/04/08 12:03:07;;;;;;;15.40;11.97;;;5.50;99.90;;;;;;5133785;27;20298;-78
2023/04/08 12:08:28;;;;;;;14.33;11.67;;;5.60;99.90;;;;;;5135418;27;20279;-78
2023/04/08 12:13:02;;;;;;;14.57;12.33;;;5.60;99.90;;;;;;5133385;27;20281;-78
2023/04/08 12:16:45;;;;;;;14.07;11.23;;;5.70;99.90;;;;;;5134338;27;20276;-78
2023/04/08 12:21:41;;;;;;;19.37;15.40;;;5.50;99.90;;;;;;5133306;27;20269;-78
2023/04/08 12:24:06;;;;;;;16.60;13.43;;;5.50;99.90;;;;;;5134166;28;20297;-78
2023/04/08 12:26:32;;;;;;;15.23;12.17;;;5.70;99.90;;;;;;5134779;27;20168;-78
2023/04/08 12:28:57;;;;;;;15.27;12.87;;;5.90;99.90;;;;;;5134213;27;20178;-78
2023/04/08 12:31:23;;;;;;;14.83;11.57;;;6.00;99.90;;;;;;5132840;28;20272;-78
2023/04/08 12:33:49;;;;;;;14.77;11.63;;;6.10;99.90;;;;;;5134514;27;20189;-78
2023/04/08 12:36:16;;;;;;;16.00;13.07;;;6.20;99.90;;;;;;5133932;27;20637;-78
2023/04/08 12:38:41;;;;;;;18.03;12.83;;;6.20;99.90;;;;;;5133651;27;20520;-78
2023/04/08 12:41:07;;;;;;;19.67;15.10;;;;;;;;;;5131824;28;20195;-78
2023/04/08 12:43:33;;;;;;;14.20;12.40;;;;;;;;;;5131459;28;20260;-78
2023/04/08 12:46:00;;;;;;;16.07;11.57;;;6.10;99.90;;;;;;5131469;28;20180;-78
2023/04/08 12:48:26;;;;;;;15.40;11.63;;;6.50;99.90;;;;;;5131442;28;20656;-78
2023/04/08 12:50:52;;;;;;;13.13;10.73;;;;;;;;;;5131638;28;20181;-78
2023/04/08 12:53:18;;;;;;;15.00;11.53;;;6.30;99.90;;;;;;5133234;28;20260;-78
2023/04/08 12:55:44;;;;;;;13.27;11.07;;;6.30;99.90;;;;;;5132169;28;20646;-78
2023/04/08 12:58:09;;;;;;;14.33;10.57;;;6.00;99.90;;;;;;5131097;28;20710;-78
2023/04/08 13:00:36;;;;;;;13.73;10.93;;;6.10;99.90;;;;;;5132408;27;20700;-78
2023/04/08 13:03:03;;;;;;;13.10;10.60;;;6.50;99.90;;;;;;5132418;27;20778;-78
2023/04/08 13:05:28;;;;;;;14.87;11.17;;;6.50;99.90;;;;;;5131064;28;20212;-78
2023/04/08 13:07:54;;;;;;;11.57;9.60;;;;;;;;;;5132491;27;20174;-78
2023/04/08 13:10:20;;;;;;;17.27;10.93;;;;;;;;;;5132055;28;20176;-78
2023/04/08 13:12:46;;;;;;;12.53;9.90;;;6.20;99.90;;;;;;5131914;28;20187;-78
2023/04/08 13:16:08;;;;;;;13.20;9.90;;;6.00;99.90;;;;;;5133743;27;20270;-78
2023/04/08 13:20:51;;;;;;;27.80;16.80;;;6.20;99.90;;;;;;5132956;27;20626;-78
